Time;durP1;ratioP1;P1;durP2;ratioP2;P2;SDS_P1;SDS_P2;PMS_P1;PMS_P2;Temp;Humidity;BMP_temperature;BMP_pressure;BME280_temperature;BME280_humidity;BME280_pressure;Samples;Min_cycle;Max_cycle;Signal;HPM_P1;HPM_P2
2022/10/26 00:01:55;;;;;;;6.90;3.47;;;;;;;;;;4977980;28;20233;-76
2022/10/26 00:04:25;;;;;;;3.23;2.90;;;;;;;;;;4999918;28;20233;-76
2022/10/26 00:06:50;;;;;;;5.27;2.73;;;;;;;;;;4961429;28;20224;-76
2022/10/26 00:09:19;;;;;;;3.27;2.97;;;;;;;;;;4970052;28;21000;-76
2022/10/26 00:11:46;;;;;;;5.80;3.43;;;;;;;;;;4987166;28;20606;-76
2022/10/26 00:14:12;;;;;;;4.20;3.40;;;;;;;;;;4993884;28;20231;-76
2022/10/26 00:16:37;;;;;;;5.57;3.20;;;;;;;;;;4987904;28;20225;-76
2022/10/26 00:19:07;;;;;;;3.37;3.10;;;;;;;;;;4987147;28;20224;-75
2022/10/26 00:21:35;;;;;;;4.20;3.80;;;;;;;;;;4995341;28;20327;-75
2022/10/26 00:24:03;;;;;;;6.20;3.43;;;;;;;;;;4988196;28;20228;-76
2022/10/26 00:26:28;;;;;;;4.00;3.60;;;;;;;;;;4990292;28;20286;-75
2022/10/26 00:28:54;;;;;;;3.50;3.20;;;;;;;;;;4977690;28;20220;-75
2022/10/26 00:31:22;;;;;;;5.53;3.90;;;;;;;;;;4999385;28;20708;-76
2022/10/26 00:33:51;;;;;;;5.20;3.80;;;;;;;;;;4990845;28;20247;-76
2022/10/26 00:36:17;;;;;;;8.17;4.17;;;;;;;;;;5004537;28;20277;-75
2022/10/26 00:38:50;;;;;;;5.20;3.93;;;;;;;;;;5008592;28;20209;-76
2022/10/26 00:41:20;;;;;;;5.77;4.20;;;;;;;;;;4957348;28;20221;-75
2022/10/26 00:43:45;;;;;;;7.27;3.80;;;;;;;;;;4999935;28;20225;-75
2022/10/26 00:46:14;;;;;;;3.93;3.53;;;;;;;;;;4994152;28;20227;-75
2022/10/26 00:48:44;;;;;;;4.40;3.90;;;;;;;;;;5007766;28;20589;-75
2022/10/26 00:51:32;;;;;;;7.33;3.93;;;;;;;;;;4986471;28;20221;-76
2022/10/26 00:54:03;;;;;;;7.57;4.10;;;;;;;;;;5009404;28;20225;-75
2022/10/26 00:56:30;;;;;;;4.33;3.63;;;;;;;;;;4984763;28;20638;-75
2022/10/26 00:58:59;;;;;;;6.13;4.13;;;;;;;;;;4994859;28;20271;-75
2022/10/26 01:01:26;;;;;;;5.93;5.43;;;;;;;;;;4976656;28;20593;-75
2022/10/26 01:03:54;;;;;;;7.73;4.73;;;;;;;;;;5004826;28;20221;-75
2022/10/26 01:06:20;;;;;;;5.07;4.50;;;;;;;;;;4977209;28;20710;-75
2022/10/26 01:08:45;;;;;;;13.60;5.40;;;;;;;;;;4995404;28;20220;-75
2022/10/26 01:11:10;;;;;;;6.60;5.83;;;;;;;;;;4976892;28;20730;-75
2022/10/26 01:13:41;;;;;;;7.87;6.30;;;;;;;;;;5010824;28;20235;-76
2022/10/26 01:16:31;;;;;;;10.20;6.80;;;;;;;;;;4992757;28;20220;-75
2022/10/26 01:19:22;;;;;;;9.57;6.37;;;;;;;;;;4993846;28;20277;-75
2022/10/26 01:21:49;;;;;;;10.00;9.00;;;;;;;;;;5020090;28;20232;-75
2022/10/26 01:25:01;;;;;;;15.77;9.07;;;;;;;;;;4999433;28;21052;-76
2022/10/26 01:27:37;;;;;;;13.77;7.87;;;;;;;;;;4985342;28;20670;-75
2022/10/26 01:30:27;;;;;;;21.43;9.30;;;;;;;;;;4993292;28;20605;-75
2022/10/26 01:33:12;;;;;;;15.67;10.57;;;;;;;;;;5018715;28;20220;-75
2022/10/26 01:36:07;;;;;;;12.93;9.87;;;;;;;;;;5003687;28;20216;-76
2022/10/26 01:38:53;;;;;;;18.70;9.33;;;;;;;;;;4995035;28;20262;-76
2022/10/26 01:41:32;;;;;;;20.20;10.67;;;;;;;;;;4994576;28;20235;-75
2022/10/26 01:44:00;;;;;;;12.63;10.80;;;;;;;;;;4982355;28;20716;-75
2022/10/26 01:46:26;;;;;;;14.60;11.20;;;;;;;;;;4982761;28;20224;-75
2022/10/26 01:48:54;;;;;;;14.00;11.33;;;;;;;;;;4988485;28;20221;-75
2022/10/26 01:51:19;;;;;;;17.67;11.30;;;;;;;;;;4975763;28;20228;-75
2022/10/26 01:53:47;;;;;;;15.37;11.57;;;;;;;;;;4976333;28;20920;-75
2022/10/26 01:56:18;;;;;;;16.57;11.70;;;;;;;;;;4968720;28;20220;-75
2022/10/26 01:58:55;;;;;;;16.50;12.53;;;;;;;;;;4992902;28;20212;-75
2022/10/26 02:01:41;;;;;;;15.27;11.57;;;;;;;;;;4974775;28;20237;-75
2022/10/26 02:04:26;;;;;;;12.13;10.83;;;;;;;;;;4993030;28;20227;-76
2022/10/26 02:07:09;;;;;;;11.57;10.47;;;;;;;;;;4994583;28;20295;-76
2022/10/26 02:09:38;;;;;;;17.57;11.53;;;;;;;;;;5013118;28;20228;-75
2022/10/26 02:12:12;;;;;;;11.93;10.77;;;;;;;;;;5007938;28;20232;-75
2022/10/26 02:15:00;;;;;;;12.13;10.37;;;;;;;;;;4993167;28;20605;-76
2022/10/26 02:17:33;;;;;;;12.47;11.17;;;;;;;;;;4986408;28;20231;-76
2022/10/26 02:20:03;;;;;;;13.40;10.87;;;;;;;;;;4976885;28;20221;-76
2022/10/26 02:22:49;;;;;;;12.60;11.40;;;;;;;;;;4991207;28;20769;-75
2022/10/26 02:25:29;;;;;;;13.40;11.47;;;;;;;;;;4976493;28;21003;-76
2022/10/26 02:28:09;;;;;;;12.43;11.23;;;;;;;;;;5003765;28;20269;-75
2022/10/26 02:30:34;;;;;;;12.50;11.20;;;;;;;;;;4980885;28;20224;-75
2022/10/26 02:33:04;;;;;;;12.97;11.87;;;;;;;;;;4980013;28;20270;-75
2022/10/26 02:35:31;;;;;;;13.13;11.73;;;;;;;;;;4976906;28;20280;-76
2022/10/26 02:38:00;;;;;;;13.87;12.37;;;;;;;;;;4979119;28;20219;-76
2022/10/26 02:40:27;;;;;;;14.30;12.80;;;;;;;;;;4986834;28;20248;-75
2022/10/26 02:43:03;;;;;;;13.50;12.13;;;;;;;;;;4993565;28;20228;-75
2022/10/26 02:45:34;;;;;;;14.43;13.03;;;;;;;;;;4964045;28;20258;-76
2022/10/26 02:48:00;;;;;;;16.17;13.43;;;;;;;;;;4979698;28;20775;-76
2022/10/26 02:50:32;;;;;;;23.13;13.77;;;;;;;;;;4979052;28;20228;-75
2022/10/26 02:53:04;;;;;;;14.83;13.33;;;;;;;;;;4988989;28;20220;-76
2022/10/26 02:55:34;;;;;;;14.00;12.57;;;;;;;;;;5006475;28;20220;-76
2022/10/26 02:58:05;;;;;;;15.57;12.80;;;;;;;;;;4974079;28;20224;-76
2022/10/26 03:00:30;;;;;;;14.43;13.00;;;;;;;;;;4994270;28;20223;-75
2022/10/26 03:03:02;;;;;;;14.43;13.03;;;;;;;;;;4979416;28;20255;-75
2022/10/26 03:05:31;;;;;;;14.80;13.23;;;;;;;;;;4962086;28;20223;-75
2022/10/26 03:08:01;;;;;;;14.10;12.80;;;;;;;;;;4977716;28;20235;-75
2022/10/26 03:10:29;;;;;;;14.37;12.97;;;;;;;;;;4978510;28;20631;-75
2022/10/26 03:12:55;;;;;;;15.73;13.13;;;;;;;;;;4972113;28;20219;-75
2022/10/26 03:15:20;;;;;;;14.10;12.80;;;;;;;;;;4988470;28;20217;-75
2022/10/26 03:17:46;;;;;;;16.33;13.67;;;;;;;;;;5006154;28;20220;-75
2022/10/26 03:20:12;;;;;;;15.20;12.90;;;;;;;;;;4993120;28;20216;-75
2022/10/26 03:22:39;;;;;;;14.77;13.27;;;;;;;;;;4973961;28;20231;-75
2022/10/26 03:25:07;;;;;;;14.83;13.30;;;;;;;;;;4965371;28;20235;-75
2022/10/26 03:27:36;;;;;;;15.20;13.70;;;;;;;;;;4978506;28;20221;-75
2022/10/26 03:30:02;;;;;;;14.23;12.77;;;;;;;;;;4994109;28;20224;-76
2022/10/26 03:32:28;;;;;;;15.00;13.50;;;;;;;;;;4978157;28;20220;-76
2022/10/26 03:34:56;;;;;;;14.40;12.53;;;;;;;;;;4994535;28;20278;-74
2022/10/26 03:37:23;;;;;;;14.47;13.07;;;;;;;;;;4993851;28;20255;-76
2022/10/26 03:39:49;;;;;;;13.50;12.37;;;;;;;;;;4986693;28;20224;-74
2022/10/26 03:42:19;;;;;;;13.97;12.57;;;;;;;;;;4994626;28;20582;-75
2022/10/26 03:44:46;;;;;;;12.47;11.37;;;;;;;;;;4993317;28;20310;-76
2022/10/26 03:47:12;;;;;;;12.17;11.07;;;;;;;;;;5022170;28;20303;-74
2022/10/26 03:49:37;;;;;;;12.27;11.07;;;;;;;;;;4988671;28;20666;-75
2022/10/26 03:52:03;;;;;;;12.80;11.07;;;;;;;;;;4977872;28;20241;-75
2022/10/26 03:54:29;;;;;;;13.03;11.20;;;;;;;;;;5018477;28;21076;-76
2022/10/26 03:56:55;;;;;;;13.57;11.90;;;;;;;;;;5019029;28;20220;-76
2022/10/26 03:59:23;;;;;;;19.00;17.10;;;;;;;;;;5018538;28;20216;-77
2022/10/26 04:01:48;;;;;;;17.60;15.77;;;;;;;;;;4975493;28;20240;-76
2022/10/26 04:04:14;;;;;;;14.17;12.83;;;;;;;;;;4992177;28;20270;-75
2022/10/26 04:06:42;;;;;;;14.37;12.87;;;;;;;;;;4976736;28;20722;-76
2022/10/26 04:09:09;;;;;;;13.57;12.30;;;;;;;;;;4983692;28;20220;-76
2022/10/26 04:11:37;;;;;;;13.90;12.50;;;;;;;;;;5008798;28;20236;-76
2022/10/26 04:14:02;;;;;;;13.57;12.17;;;;;;;;;;4981658;28;20653;-76
2022/10/26 04:16:28;;;;;;;13.97;12.57;;;;;;;;;;4993387;28;20234;-77
2022/10/26 04:18:56;;;;;;;17.27;13.37;;;;;;;;;;4975451;28;20220;-76
2022/10/26 04:21:24;;;;;;;13.37;12.03;;;;;;;;;;4984863;28;20224;-76
2022/10/26 04:23:49;;;;;;;14.57;12.67;;;;;;;;;;4998801;28;20234;-75
2022/10/26 04:26:21;;;;;;;12.70;11.53;;;;;;;;;;4999413;28;20217;-76
2022/10/26 04:28:51;;;;;;;12.53;11.33;;;;;;;;;;4990720;28;20315;-76
2022/10/26 04:31:19;;;;;;;14.63;13.27;;;;;;;;;;4977889;28;20225;-76
2022/10/26 04:33:44;;;;;;;14.23;12.33;;;;;;;;;;4993732;28;20239;-77
2022/10/26 04:36:12;;;;;;;13.43;12.13;;;;;;;;;;4978973;28;20279;-76
2022/10/26 04:38:38;;;;;;;13.33;12.03;;;;;;;;;;4987998;28;20278;-76
2022/10/26 04:41:09;;;;;;;13.93;12.47;;;;;;;;;;4984901;28;20241;-77
2022/10/26 04:43:39;;;;;;;14.40;12.90;;;;;;;;;;4968547;28;20262;-76
2022/10/26 04:46:08;;;;;;;14.00;12.67;;;;;;;;;;4982795;28;20221;-75
2022/10/26 04:48:33;;;;;;;14.50;12.20;;;;;;;;;;5002213;28;21095;-76
2022/10/26 04:51:01;;;;;;;13.13;11.83;;;;;;;;;;4997800;28;20251;-76
2022/10/26 04:53:32;;;;;;;12.80;11.60;;;;;;;;;;4985989;28;20221;-76
2022/10/26 04:55:58;;;;;;;14.00;12.40;;;;;;;;;;4984238;28;20666;-76
2022/10/26 04:58:23;;;;;;;12.10;11.00;;;;;;;;;;4960925;28;20223;-75
2022/10/26 05:00:49;;;;;;;13.30;10.97;;;;;;;;;;4976390;28;20224;-75
2022/10/26 05:03:19;;;;;;;12.40;11.10;;;;;;;;;;4985959;28;20235;-75
2022/10/26 05:05:46;;;;;;;12.20;11.00;;;;;;;;;;5001296;28;20715;-76
2022/10/26 05:08:15;;;;;;;12.87;11.53;;;;;;;;;;4993652;28;20234;-75
2022/10/26 05:10:40;;;;;;;12.77;11.50;;;;;;;;;;4977785;28;20227;-75
2022/10/26 05:13:08;;;;;;;12.90;11.60;;;;;;;;;;4993058;28;20216;-75
2022/10/26 05:15:34;;;;;;;12.83;11.53;;;;;;;;;;4998472;28;20228;-75
2022/10/26 05:18:07;;;;;;;12.93;11.83;;;;;;;;;;4992984;28;20573;-75
2022/10/26 05:20:33;;;;;;;16.87;10.80;;;;;;;;;;4977354;28;20230;-75
2022/10/26 05:23:17;;;;;;;12.63;11.40;;;;;;;;;;4993485;28;20683;-75
2022/10/26 05:25:43;;;;;;;11.80;10.70;;;;;;;;;;4986424;28;20215;-74
2022/10/26 05:28:12;;;;;;;12.77;11.47;;;;;;;;;;5004299;28;20227;-76
2022/10/26 05:30:38;;;;;;;14.27;12.77;;;;;;;;;;4962560;28;20216;-75
2022/10/26 05:33:07;;;;;;;14.73;13.23;;;;;;;;;;5015069;28;20311;-76
2022/10/26 05:35:37;;;;;;;11.30;10.20;;;;;;;;;;4971547;28;20221;-76
2022/10/26 05:38:08;;;;;;;10.40;9.43;;;;;;;;;;4972282;28;20270;-75
2022/10/26 05:40:34;;;;;;;10.73;9.43;;;;;;;;;;5005096;28;20237;-75
2022/10/26 05:43:00;;;;;;;10.60;9.63;;;;;;;;;;5006886;28;20374;-76
2022/10/26 05:45:26;;;;;;;54.83;49.00;;;;;;;;;;4982597;28;20220;-75
2022/10/26 05:47:51;;;;;;;41.97;37.43;;;;;;;;;;4981557;28;20243;-75
2022/10/26 05:50:17;;;;;;;28.97;23.03;;;;;;;;;;4982037;28;20475;-76
2022/10/26 05:52:44;;;;;;;10.83;9.77;;;;;;;;;;4974750;28;20299;-76
2022/10/26 05:55:11;;;;;;;10.13;9.23;;;;;;;;;;4982674;28;20220;-76
2022/10/26 05:57:39;;;;;;;10.63;9.60;;;;;;;;;;5005631;28;20224;-75
2022/10/26 06:00:20;;;;;;;12.07;9.23;;;;;;;;;;4975605;28;20220;-76
2022/10/26 06:03:07;;;;;;;9.10;8.20;;;;;;;;;;5001879;28;20236;-75
2022/10/26 06:05:56;;;;;;;9.93;9.00;;;;;;;;;;5001946;28;20232;-75
2022/10/26 06:08:26;;;;;;;9.83;8.93;;;;;;;;;;5004591;28;20252;-75
2022/10/26 06:10:52;;;;;;;9.60;8.63;;;;;;;;;;4990068;28;20217;-75
2022/10/26 06:13:18;;;;;;;9.70;8.77;;;;;;;;;;4976949;28;20213;-76
2022/10/26 06:15:56;;;;;;;26.43;23.63;;;;;;;;;;4986868;28;20224;-76
2022/10/26 06:18:49;;;;;;;31.10;27.77;;;;;;;;;;4995303;28;20252;-76
2022/10/26 06:21:36;;;;;;;37.23;33.23;;;;;;;;;;4988604;28;20272;-75
2022/10/26 06:24:03;;;;;;;17.60;15.27;;;;;;;;;;4999987;28;20255;-75
2022/10/26 06:26:51;;;;;;;16.77;15.03;;;;;;;;;;4993058;28;20836;-76
2022/10/26 06:29:22;;;;;;;29.27;26.27;;;;;;;;;;4976066;28;20255;-76
2022/10/26 06:31:50;;;;;;;33.40;29.77;;;;;;;;;;5007863;28;20223;-75
2022/10/26 06:34:24;;;;;;;18.57;16.60;;;;;;;;;;4976942;28;20237;-75
2022/10/26 06:36:52;;;;;;;25.53;18.13;;;;;;;;;;4958565;28;20633;-75
2022/10/26 06:39:17;;;;;;;18.17;16.37;;;;;;;;;;4964295;28;20248;-75
2022/10/26 06:41:45;;;;;;;14.13;12.73;;;;;;;;;;4966126;28;20710;-75
2022/10/26 06:44:21;;;;;;;13.73;12.47;;;;;;;;;;4968209;28;20460;-75
2022/10/26 06:46:47;;;;;;;15.13;13.67;;;;;;;;;;4991813;28;20227;-73
2022/10/26 06:49:41;;;;;;;17.97;16.03;;;;;;;;;;4977131;28;20233;-75
2022/10/26 06:52:12;;;;;;;10.00;9.03;;;;;;;;;;5004684;28;20258;-76
2022/10/26 06:54:51;;;;;;;14.47;13.10;;;;;;;;;;4999068;28;20232;-76
2022/10/26 06:57:18;;;;;;;15.57;14.07;;;;;;;;;;4966078;28;20270;-75
2022/10/26 06:59:55;;;;;;;11.33;10.33;;;;;;;;;;4997250;28;20252;-75
2022/10/26 07:02:23;;;;;;;10.83;9.70;;;;;;;;;;4984915;28;20268;-75
2022/10/26 07:04:48;;;;;;;9.13;8.27;;;;;;;;;;4996566;28;20240;-76
2022/10/26 07:07:17;;;;;;;8.70;7.90;;;;;;;;;;4966963;28;20217;-76
2022/10/26 07:09:47;;;;;;;8.60;7.70;;;;;;;;;;4990740;28;20279;-75
2022/10/26 07:12:15;;;;;;;8.43;7.73;;;;;;;;;;5002714;28;20219;-74
2022/10/26 07:14:43;;;;;;;9.93;8.17;;;;;;;;;;4970609;28;20660;-75
2022/10/26 07:17:09;;;;;;;9.20;8.23;;;;;;;;;;5006170;28;20612;-75
2022/10/26 07:19:40;;;;;;;9.57;8.67;;;;;;;;;;5003167;28;20224;-76
2022/10/26 07:22:07;;;;;;;9.73;8.67;;;;;;;;;;4990671;28;20235;-76
2022/10/26 07:24:33;;;;;;;9.60;8.20;;;;;;;;;;5011201;28;20239;-75
2022/10/26 07:27:01;;;;;;;8.90;8.10;;;;;;;;;;4992633;28;20747;-76
2022/10/26 07:29:26;;;;;;;9.10;8.30;;;;;;;;;;4982717;28;20232;-76
2022/10/26 07:31:52;;;;;;;11.17;8.63;;;;;;;;;;5012648;28;20220;-76
2022/10/26 07:34:17;;;;;;;12.63;8.97;;;;;;;;;;4991833;28;20231;-75
2022/10/26 07:36:43;;;;;;;9.53;8.23;;;;;;;;;;4989811;28;20224;-75
2022/10/26 07:39:11;;;;;;;9.67;8.77;;;;;;;;;;4978949;28;20222;-75
2022/10/26 07:41:36;;;;;;;10.07;9.07;;;;;;;;;;5006737;28;20230;-75
2022/10/26 07:44:04;;;;;;;9.93;9.03;;;;;;;;;;4976853;28;20213;-73
2022/10/26 07:46:32;;;;;;;9.57;8.63;;;;;;;;;;4989320;28;20249;-75
2022/10/26 07:49:00;;;;;;;9.03;8.33;;;;;;;;;;5005107;28;20599;-76
2022/10/26 07:51:28;;;;;;;9.87;9.07;;;;;;;;;;4988814;28;20253;-77
2022/10/26 07:53:56;;;;;;;10.30;9.00;;;;;;;;;;5020934;28;20271;-75
2022/10/26 07:56:24;;;;;;;9.90;9.00;;;;;;;;;;4992605;28;20608;-76
2022/10/26 07:58:55;;;;;;;10.03;9.07;;;;;;;;;;5017095;28;20224;-76
2022/10/26 08:01:23;;;;;;;10.77;9.00;;;;;;;;;;5005542;28;20724;-76
2022/10/26 08:03:52;;;;;;;10.60;8.83;;;;;;;;;;4989443;28;20229;-76
2022/10/26 08:06:20;;;;;;;9.90;8.90;;;;;;;;;;5006804;28;20270;-77
2022/10/26 08:08:46;;;;;;;9.80;8.67;;;;;;;;;;5003382;28;20323;-76
2022/10/26 08:11:11;;;;;;;9.27;8.37;;;;;;;;;;4972174;28;20220;-76
2022/10/26 08:13:39;;;;;;;9.30;8.40;;;;;;;;;;4979551;28;20220;-77
2022/10/26 08:16:05;;;;;;;11.23;9.73;;;;;;;;;;5001213;28;20270;-76
2022/10/26 08:18:33;;;;;;;10.30;8.97;;;;;;;;;;4989299;28;20221;-76
2022/10/26 08:21:08;;;;;;;12.37;8.37;;;;;;;;;;5005735;28;20236;-78
2022/10/26 08:23:34;;;;;;;9.83;8.93;;;;;;;;;;4994792;28;20237;-77
2022/10/26 08:26:00;;;;;;;9.03;8.10;;;;;;;;;;5014090;28;20591;-77
2022/10/26 08:28:28;;;;;;;9.63;8.30;;;;;;;;;;5010827;28;20226;-77
2022/10/26 08:30:54;;;;;;;8.77;7.97;;;;;;;;;;4989159;28;20216;-77
2022/10/26 08:33:19;;;;;;;8.00;7.20;;;;;;;;;;4977324;28;20589;-77
2022/10/26 08:35:47;;;;;;;9.43;6.93;;;;;;;;;;4977164;28;20223;-76
2022/10/26 08:38:13;;;;;;;8.20;7.40;;;;;;;;;;4996881;28;20224;-76
2022/10/26 08:40:40;;;;;;;8.23;7.30;;;;;;;;;;4985710;28;20239;-77
2022/10/26 08:43:15;;;;;;;7.60;6.90;;;;;;;;;;4962540;28;20312;-77
2022/10/26 08:45:47;;;;;;;7.13;6.50;;;;;;;;;;5005352;28;20228;-77
2022/10/26 08:48:23;;;;;;;7.30;6.60;;;;;;;;;;4993962;28;20699;-74
2022/10/26 08:50:51;;;;;;;7.43;6.73;;;;;;;;;;4986105;28;20606;-75
2022/10/26 08:53:22;;;;;;;8.50;6.50;;;;;;;;;;4978533;28;20313;-78
2022/10/26 08:55:55;;;;;;;7.20;6.60;;;;;;;;;;4989296;28;20247;-76
2022/10/26 08:58:26;;;;;;;6.40;5.80;;;;;;;;;;5003595;28;20240;-77
2022/10/26 09:00:54;;;;;;;6.33;5.77;;;;;;;;;;4976062;28;20899;-74
2022/10/26 09:03:20;;;;;;;6.00;5.40;;;;;;;;;;5013601;28;20237;-74
2022/10/26 09:06:00;;;;;;;6.93;5.00;;;;;;;;;;5019173;28;20222;-74
2022/10/26 09:08:31;;;;;;;7.63;5.07;;;;;;;;;;5000051;28;20576;-74
2022/10/26 09:11:27;;;;;;;6.40;4.97;;;;;;;;;;5003857;28;20596;-76
2022/10/26 09:14:06;;;;;;;5.67;4.77;;;;;;;;;;5019339;28;20954;-76
2022/10/26 09:17:11;;;;;;;5.93;4.80;;;;;;;;;;5003987;28;20246;-77
2022/10/26 09:19:50;;;;;;;6.10;4.30;;;;;;;;;;5003337;28;20227;-76
2022/10/26 09:22:44;;;;;;;4.90;4.50;;;;;;;;;;5017736;28;20234;-76
2022/10/26 09:25:19;;;;;;;5.03;4.53;;;;;;;;;;5006536;28;20304;-75
2022/10/26 09:28:07;;;;;;;4.93;4.50;;;;;;;;;;5005351;28;20220;-75
2022/10/26 09:30:34;;;;;;;4.03;3.63;;;;;;;;;;4991756;28;20287;-76
2022/10/26 09:33:23;;;;;;;4.30;3.90;;;;;;;;;;4970070;28;20213;-76
2022/10/26 09:35:56;;;;;;;4.30;3.23;;;;;;;;;;4979487;28;20282;-76
2022/10/26 09:38:53;;;;;;;7.70;3.70;;;;;;;;;;4977968;28;20278;-75
2022/10/26 09:41:31;;;;;;;5.30;3.30;;;;;;;;;;5017531;28;20208;-76
2022/10/26 09:44:25;;;;;;;4.43;3.40;;;;;;;;;;5002906;28;20232;-75
2022/10/26 09:47:01;;;;;;;4.80;3.43;;;;;;;;;;4997603;28;20255;-76
2022/10/26 09:49:36;;;;;;;3.87;3.33;;;;;;;;;;4987433;28;20739;-76
2022/10/26 09:52:01;;;;;;;6.20;3.47;;;;;;;;;;4986430;28;20248;-77
2022/10/26 09:54:27;;;;;;;3.60;3.20;;;;;;;;;;4986880;28;20239;-76
2022/10/26 09:56:56;;;;;;;6.47;3.20;;;;;;;;;;4989660;28;20220;-76
2022/10/26 09:59:23;;;;;;;5.93;3.03;;;;;;;;;;5001738;28;20282;-76
2022/10/26 10:01:48;;;;;;;5.90;2.57;;;;;;;;;;4976376;28;20319;-76
2022/10/26 10:04:16;;;;;;;2.90;2.53;;;;;;;;;;4985217;28;20217;-76
2022/10/26 10:06:59;;;;;;;5.50;2.40;;;;;;;;;;5015545;28;20232;-76
2022/10/26 10:09:25;;;;;;;3.63;2.60;;;;;;;;;;5018992;28;20251;-77
2022/10/26 10:11:55;;;;;;;2.70;2.17;;;;;;;;;;4999345;28;20232;-76
2022/10/26 10:14:24;;;;;;;2.72;2.35;;;;;;;;;;5003508;28;20255;-75
2022/10/26 10:17:19;;;;;;;4.37;2.80;;;;;;;;;;4991016;28;20269;-77
2022/10/26 10:19:46;;;;;;;3.07;2.23;;;;;;;;;;4970286;28;20317;-78
2022/10/26 10:22:15;;;;;;;6.93;2.88;;;;;;;;;;4979741;28;20674;-76
2022/10/26 10:24:41;;;;;;;3.90;2.80;;;;;;;;;;5005660;28;20232;-77
2022/10/26 10:27:14;;;;;;;5.63;2.20;;;;;;;;;;4984855;28;20761;-76
2022/10/26 10:29:41;;;;;;;2.88;2.50;;;;;;;;;;5004254;28;20230;-76
2022/10/26 10:32:17;;;;;;;3.97;2.40;;;;;;;;;;4967414;28;20229;-75
2022/10/26 10:34:44;;;;;;;5.03;2.15;;;;;;;;;;5004170;28;20223;-76
2022/10/26 10:37:43;;;;;;;5.13;2.50;;;;;;;;;;5003467;28;20219;-76
2022/10/26 10:40:18;;;;;;;4.15;2.30;;;;;;;;;;4986143;28;20605;-76
2022/10/26 10:42:46;;;;;;;3.80;2.28;;;;;;;;;;5005361;28;20227;-76
2022/10/26 10:45:22;;;;;;;3.60;2.38;;;;;;;;;;4995744;28;20233;-76
2022/10/26 10:48:41;;;;;;;2.67;2.30;;;;;;;;;;4998531;28;20232;-77
2022/10/26 10:51:11;;;;;;;1.90;1.80;;;;;;;;;;4964391;28;20739;-77
2022/10/26 10:53:44;;;;;;;2.95;1.90;;;;;;;;;;4937930;28;20226;-76
2022/10/26 10:56:30;;;;;;;3.50;2.25;;;;;;;;;;4976344;28;20599;-77
2022/10/26 10:59:02;;;;;;;2.72;1.88;;;;;;;;;;5007128;28;20750;-77
2022/10/26 11:01:34;;;;;;;3.25;1.70;;;;;;;;;;5023583;28;21099;-76
2022/10/26 11:04:05;;;;;;;2.88;1.95;;;;;;;;;;4993850;28;20228;-76
2022/10/26 11:06:33;;;;;;;2.45;1.80;;;;;;;;;;5004840;28;20252;-77
2022/10/26 11:09:09;;;;;;;4.20;1.85;;;;;;;;;;4991814;28;20689;-77
2022/10/26 11:11:43;;;;;;;2.55;1.75;;;;;;;;;;4975912;28;20231;-77
2022/10/26 11:14:16;;;;;;;2.47;1.70;;;;;;;;;;4994201;28;20344;-76
2022/10/26 11:16:49;;;;;;;3.30;1.60;;;;;;;;;;4994855;28;20224;-77
2022/10/26 11:19:30;;;;;;;2.53;1.85;;;;;;;;;;4973860;28;20215;-76
2022/10/26 11:21:57;;;;;;;2.35;1.80;;;;;;;;;;5008498;28;20936;-76
2022/10/26 11:24:27;;;;;;;5.22;1.70;;;;;;;;;;5006285;28;20224;-76
2022/10/26 11:27:03;;;;;;;5.45;2.10;;;;;;;;;;4991581;28;20220;-76
2022/10/26 11:29:33;;;;;;;2.70;1.67;;;;;;;;;;5021486;28;20239;-76
2022/10/26 11:32:10;;;;;;;2.92;1.73;;;;;;;;;;4979590;28;20223;-75
2022/10/26 11:34:43;;;;;;;2.30;1.90;;;;;;;;;;4996079;28;20216;-76
2022/10/26 11:37:58;;;;;;;2.55;1.83;;;;;;;;;;4993750;28;20211;-76
2022/10/26 11:40:45;;;;;;;6.03;2.08;;;;;;;;;;4981179;28;20228;-76
2022/10/26 11:43:20;;;;;;;4.13;2.20;;;;;;;;;;4963417;28;20229;-76
2022/10/26 11:45:56;;;;;;;2.47;1.80;;;;;;;;;;4989396;28;20666;-76
2022/10/26 11:48:23;;;;;;;5.60;1.88;;;;;;;;;;4975895;28;20227;-76
2022/10/26 11:50:51;;;;;;;4.82;1.95;;;;;;;;;;4982737;28;20217;-76
2022/10/26 11:53:45;;;;;;;3.53;1.80;;;;;;;;;;4973726;28;20220;-76
2022/10/26 11:56:36;;;;;;;2.30;2.10;;;;;;;;;;4995037;28;20275;-77
2022/10/26 11:59:04;;;;;;;2.90;1.85;;;;;;;;;;4967961;28;20217;-76
2022/10/26 12:01:35;;;;;;;3.95;1.85;;;;;;;;;;4989592;28;20846;-76
2022/10/26 12:04:00;;;;;;;2.47;1.70;;;;;;;;;;4977214;28;20220;-75
2022/10/26 12:06:30;;;;;;;3.30;1.70;;;;;;;;;;4975060;28;20820;-75
2022/10/26 12:09:31;;;;;;;2.30;1.50;;;;;;;;;;5005946;28;20710;-74
2022/10/26 12:12:03;;;;;;;8.75;2.08;;;;;;;;;;4986430;28;20228;-75
2022/10/26 12:14:46;;;;;;;2.28;1.52;;;;;;;;;;4985667;28;20761;-75
2022/10/26 12:17:13;;;;;;;3.33;1.75;;;;;;;;;;4996448;28;20224;-76
2022/10/26 12:19:42;;;;;;;5.10;1.67;;;;;;;;;;5001505;28;20244;-75
2022/10/26 12:22:12;;;;;;;2.90;1.63;;;;;;;;;;4978412;28;20289;-76
2022/10/26 12:24:45;;;;;;;2.95;1.90;;;;;;;;;;4962221;28;20235;-78
2022/10/26 12:27:30;;;;;;;2.20;1.63;;;;;;;;;;5005389;28;20220;-77
2022/10/26 12:30:10;;;;;;;4.68;1.88;;;;;;;;;;5019078;28;20770;-76
2022/10/26 12:32:39;;;;;;;2.90;1.90;;;;;;;;;;5021239;28;20220;-76
2022/10/26 12:35:33;;;;;;;3.45;1.92;;;;;;;;;;5009079;28;20224;-77
2022/10/26 12:38:27;;;;;;;2.08;1.80;;;;;;;;;;4987793;28;20694;-77
2022/10/26 12:41:09;;;;;;;3.22;1.85;;;;;;;;;;5020421;28;20220;-77
2022/10/26 12:43:39;;;;;;;2.05;1.67;;;;;;;;;;4991256;28;20237;-77
2022/10/26 12:46:14;;;;;;;2.25;1.45;;;;;;;;;;5017709;28;20213;-76
2022/10/26 12:48:45;;;;;;;1.55;1.45;;;;;;;;;;5004166;28;20220;-76
2022/10/26 12:51:20;;;;;;;3.65;1.90;;;;;;;;;;5005615;28;20236;-76
2022/10/26 12:54:21;;;;;;;4.35;1.83;;;;;;;;;;5018875;28;20298;-77
2022/10/26 12:57:05;;;;;;;5.90;1.85;;;;;;;;;;4994304;28;20248;-75
2022/10/26 13:00:05;;;;;;;2.47;1.50;;;;;;;;;;5002665;28;20220;-77
2022/10/26 13:02:36;;;;;;;2.28;1.60;;;;;;;;;;4976907;28;20273;-76
2022/10/26 13:05:28;;;;;;;5.93;1.42;;;;;;;;;;4986420;28;20690;-74
2022/10/26 13:08:00;;;;;;;2.13;1.33;;;;;;;;;;5001102;28;20225;-75
2022/10/26 13:10:26;;;;;;;2.90;1.55;;;;;;;;;;4972828;28;20224;-77
2022/10/26 13:12:55;;;;;;;3.13;1.70;;;;;;;;;;4989274;28;20270;-74
2022/10/26 13:15:26;;;;;;;2.13;1.55;;;;;;;;;;4978060;28;20712;-76
2022/10/26 13:18:19;;;;;;;2.80;1.83;;;;;;;;;;5007445;28;20220;-76
2022/10/26 13:21:07;;;;;;;2.00;1.52;;;;;;;;;;5017934;28;20262;-76
2022/10/26 13:23:34;;;;;;;2.10;1.50;;;;;;;;;;4992778;28;20607;-76
2022/10/26 13:26:07;;;;;;;3.80;1.80;;;;;;;;;;4994012;28;20229;-76
2022/10/26 13:28:32;;;;;;;3.65;1.45;;;;;;;;;;4971031;28;20217;-75
2022/10/26 13:31:00;;;;;;;3.47;1.83;;;;;;;;;;5009228;28;20231;-76
2022/10/26 13:33:34;;;;;;;2.83;1.70;;;;;;;;;;4978016;28;20216;-76
2022/10/26 13:35:59;;;;;;;2.20;1.80;;;;;;;;;;4978143;28;20216;-76
2022/10/26 13:38:30;;;;;;;6.05;2.20;;;;;;;;;;5005968;28;20220;-76
2022/10/26 13:41:03;;;;;;;4.50;2.00;;;;;;;;;;4976620;28;20235;-76
2022/10/26 13:43:28;;;;;;;4.85;1.70;;;;;;;;;;4969594;28;20228;-76
2022/10/26 13:46:01;;;;;;;4.78;2.13;;;;;;;;;;4977161;28;20223;-76
2022/10/26 13:48:39;;;;;;;4.00;1.92;;;;;;;;;;4986131;28;20299;-76
2022/10/26 13:51:41;;;;;;;2.22;1.70;;;;;;;;;;4992873;28;20243;-77
2022/10/26 13:54:27;;;;;;;5.95;2.20;;;;;;;;;;4975425;28;20244;-76
2022/10/26 13:56:58;;;;;;;3.72;1.70;;;;;;;;;;4971375;28;20219;-76
2022/10/26 13:59:23;;;;;;;2.65;1.70;;;;;;;;;;5002161;28;20224;-76
2022/10/26 14:02:05;;;;;;;2.20;1.50;;;;;;;;;;4987652;28;20597;-75
2022/10/26 14:04:33;;;;;;;1.77;1.30;;;;;;;;;;4984666;28;20261;-75
2022/10/26 14:06:59;;;;;;;4.25;1.70;;;;;;;;;;4977932;28;20210;-77
2022/10/26 14:09:27;;;;;;;3.08;1.70;;;;;;;;;;4988189;28;20216;-78
2022/10/26 14:11:59;;;;;;;2.10;1.60;;;;;;;;;;4990118;28;20232;-74
2022/10/26 14:14:29;;;;;;;3.35;1.63;;;;;;;;;;4960279;28;20231;-76
2022/10/26 14:16:55;;;;;;;2.25;1.88;;;;;;;;;;4978194;28;20240;-75
2022/10/26 14:19:36;;;;;;;4.13;1.98;;;;;;;;;;4970512;28;20758;-76
2022/10/26 14:22:02;;;;;;;1.95;1.70;;;;;;;;;;4984154;28;20686;-75
2022/10/26 14:24:31;;;;;;;6.40;1.92;;;;;;;;;;5005619;28;20212;-77
2022/10/26 14:26:56;;;;;;;2.05;1.70;;;;;;;;;;4972022;28;20652;-77
2022/10/26 14:29:26;;;;;;;1.85;1.58;;;;;;;;;;5015580;28;22971;-77
2022/10/26 14:31:53;;;;;;;4.28;1.73;;;;;;;;;;4981540;28;20307;-76
2022/10/26 14:34:21;;;;;;;1.98;1.65;;;;;;;;;;4990957;28;20219;-74
2022/10/26 14:36:56;;;;;;;1.70;1.40;;;;;;;;;;5013405;28;20243;-75
2022/10/26 14:39:29;;;;;;;2.28;1.38;;;;;;;;;;5027443;28;20227;-74
2022/10/26 14:41:55;;;;;;;2.53;1.50;;;;;;;;;;5008748;28;20238;-75
2022/10/26 14:44:22;;;;;;;1.90;1.38;;;;;;;;;;4981671;28;20212;-75
2022/10/26 14:46:48;;;;;;;2.60;1.70;;;;;;;;;;4957616;28;20243;-75
2022/10/26 14:49:20;;;;;;;4.18;1.50;;;;;;;;;;4994516;28;20694;-75
2022/10/26 14:51:46;;;;;;;2.55;1.52;;;;;;;;;;4980755;28;20228;-75
2022/10/26 14:54:22;;;;;;;3.80;1.50;;;;;;;;;;5011809;28;20303;-75
2022/10/26 14:56:50;;;;;;;2.97;1.30;;;;;;;;;;4975902;28;20261;-76
2022/10/26 14:59:30;;;;;;;3.33;1.70;;;;;;;;;;5011617;28;20213;-75
2022/10/26 15:02:18;;;;;;;1.63;1.25;;;;;;;;;;5000351;28;20690;-76
2022/10/26 15:05:01;;;;;;;2.67;1.15;;;;;;;;;;4988186;28;20219;-76